Observation data for Paducah on 08/14/2019      Previous  Date  Next       Current Mesonet Observations  Soil Data  Daily Summary Page  Observations in Plain Language
KPAD 140500Z 07006KT 26/18 A3006 RMK A01 T02550183  RH  068%=      5-min Rain = 0
KPAD 140505Z 06006KT 26/18 A3006 RMK A01 T02560184  RH  068%=      5-min Rain = 0
KPAD 140510Z 05006KT 26/18 A3006 RMK A01 T02560184  RH  068%=      5-min Rain = 0
KPAD 140515Z 04006KT 26/18 A3007 RMK A01 T02550183  RH  068%=      5-min Rain = 0
KPAD 140520Z 02005KT 25/18 A3007 RMK A01 T02510183  RH  069%=      5-min Rain = 0
KPAD 140525Z 04005KT 25/18 A3007 RMK A01 T02480182  RH  071%=      5-min Rain = 0
KPAD 140530Z 03006KT 25/18 A3007 RMK A01 T02470182  RH  071%=      5-min Rain = 0
KPAD 140535Z 03006KT 25/18 A3007 RMK A01 T02460183  RH  071%=      5-min Rain = 0
KPAD 140540Z 04007KT 25/18 A3007 RMK A01 T02470184  RH  072%=      5-min Rain = 0
KPAD 140545Z 04007KT 25/18 A3007 RMK A01 T02480184  RH  071%=      5-min Rain = 0
KPAD 140550Z 04007KT 25/19 A3007 RMK A01 T02490185  RH  071%=      5-min Rain = 0
KPAD 140555Z 04006KT 25/19 A3007 RMK A01 T02480185  RH  072%=      5-min Rain = 0
KPAD 140600Z 04006KT 25/19 A3007 RMK A01 T02480185  RH  072%=      5-min Rain = 0
KPAD 140605Z 05007KT 25/19 A3007 RMK A01 T02480185  RH  072%=      5-min Rain = 0
KPAD 140610Z 04008KT 25/19 A3007 RMK A01 T02480185  RH  072%=      5-min Rain = 0
KPAD 140615Z 04009KT 25/19 A3008 RMK A01 T02490185  RH  071%=      5-min Rain = 0
KPAD 140620Z 04009KT 25/19 A3009 RMK A01 T02500185  RH  071%=      5-min Rain = 0
KPAD 140625Z 04009KT 25/19 A3009 RMK A01 T02510185  RH  071%=      5-min Rain = 0
KPAD 140630Z 05008KT 25/19 A3009 RMK A01 T02520185  RH  070%=      5-min Rain = 0
KPAD 140635Z 05007KT 25/19 A3009 RMK A01 T02520185  RH  070%=      5-min Rain = 0
KPAD 140640Z 04006KT 25/19 A3009 RMK A01 T02510185  RH  071%=      5-min Rain = 0
KPAD 140645Z 04007KT 25/18 A3009 RMK A01 T02500184  RH  070%=      5-min Rain = 0
KPAD 140650Z 03008KT 25/18 A3009 RMK A01 T02490183  RH  071%=      5-min Rain = 0
KPAD 140655Z 04007KT 25/18 A3009 RMK A01 T02480183  RH  071%=      5-min Rain = 0
KPAD 140700Z 04008KT 25/18 A3009 RMK A01 T02480183  RH  071%=      5-min Rain = 0
KPAD 140705Z 03008KT 25/18 A3009 RMK A01 T02470182  RH  071%=      5-min Rain = 0
KPAD 140710Z 03009KT 25/18 A3009 RMK A01 T02470182  RH  071%=      5-min Rain = 0
KPAD 140715Z 04009KT 25/18 A3008 RMK A01 T02480182  RH  070%=      5-min Rain = 0
KPAD 140720Z 04008KT 25/18 A3008 RMK A01 T02470183  RH  071%=      5-min Rain = 0
KPAD 140725Z 05007KT 25/18 A3008 RMK A01 T02470183  RH  071%=      5-min Rain = 0
KPAD 140730Z 05007KT 25/18 A3008 RMK A01 T02460183  RH  072%=      5-min Rain = 0
KPAD 140735Z 05007KT 25/18 A3008 RMK A01 T02450182  RH  072%=      5-min Rain = 0
KPAD 140740Z 04006KT 25/18 A3008 RMK A01 T02450182  RH  072%=      5-min Rain = 0
KPAD 140745Z 04006KT 24/18 A3007 RMK A01 T02440181  RH  072%=      5-min Rain = 0
KPAD 140750Z 03006KT 24/18 A3008 RMK A01 T02420181  RH  072%=      5-min Rain = 0
KPAD 140755Z 03006KT 24/18 A3008 RMK A01 T02400181  RH  073%=      5-min Rain = 0
KPAD 140800Z 05005KT 24/18 A3007 RMK A01 T02390180  RH  074%=      5-min Rain = 0
KPAD 140805Z 06004KT 24/18 A3007 RMK A01 T02370180  RH  074%=      5-min Rain = 0
KPAD 140810Z 04004KT 24/18 A3007 RMK A01 T02350180  RH  075%=      5-min Rain = 0
KPAD 140815Z 04003KT 24/18 A3007 RMK A01 T02350180  RH  075%=      5-min Rain = 0
KPAD 140820Z 05003KT 23/18 A3007 RMK A01 T02340180  RH  075%=      5-min Rain = 0
KPAD 140825Z 05002KT 23/18 A3007 RMK A01 T02340180  RH  075%=      5-min Rain = 0
KPAD 140830Z 02004KT 24/18 A3007 RMK A01 T02350180  RH  075%=      5-min Rain = 0
KPAD 140835Z 01006KT 23/18 A3007 RMK A01 T02330179  RH  076%=      5-min Rain = 0
KPAD 140840Z 02007KT 23/18 A3007 RMK A01 T02300179  RH  077%=      5-min Rain = 0
KPAD 140845Z 02009KT 23/18 A3008 RMK A01 T02280180  RH  078%=      5-min Rain = 0
KPAD 140850Z 02008KT 23/18 A3008 RMK A01 T02300182  RH  078%=      5-min Rain = 0
KPAD 140855Z 02009KT 23/18 A3008 RMK A01 T02340183  RH  077%=      5-min Rain = 0
KPAD 140900Z 03009KT 24/18 A3008 RMK A01 T02360183  RH  076%=      5-min Rain = 0
KPAD 140905Z 03010KT 24/18 A3008 RMK A01 T02380183  RH  075%=      5-min Rain = 0
KPAD 140910Z 04012KT 24/18 A3008 RMK A01 T02390183  RH  075%=      5-min Rain = 0
KPAD 140915Z 04011KT 24/18 A3008 RMK A01 T02390183  RH  075%=      5-min Rain = 0
KPAD 140920Z 03012G17KT 24/18 A3008 RMK A01 T02370183  RH  075%=      5-min Rain = 0
KPAD 140925Z 03011KT 24/18 A3008 RMK A01 T02360183  RH  076%=      5-min Rain = 0
KPAD 140930Z 03010KT 24/18 A3009 RMK A01 T02350183  RH  076%=      5-min Rain = 0
KPAD 140935Z 03011G16KT 23/18 A3009 RMK A01 T02330182  RH  077%=      5-min Rain = 0
KPAD 140940Z 03012G18KT 23/18 A3009 RMK A01 T02320181  RH  077%=      5-min Rain = 0
KPAD 140945Z 03013G19KT 23/18 A3009 RMK A01 T02310179  RH  077%=      5-min Rain = 0
KPAD 140950Z 03012G17KT 23/18 A3009 RMK A01 T02300179  RH  077%=      5-min Rain = 0
KPAD 140955Z 03013KT 23/18 A301 RMK A01 T02300178  RH  077%=      5-min Rain = 0
KPAD 141000Z 02011G16KT 23/18 A301 RMK A01 T02300178  RH  076%=      5-min Rain = 0
KPAD 141005Z 03012KT 23/18 A301 RMK A01 T02290177  RH  076%=      5-min Rain = 0
KPAD 141010Z 03013KT 23/18 A3011 RMK A01 T02280176  RH  076%=      5-min Rain = 0
KPAD 141015Z 03013G19KT 23/17 A3011 RMK A01 T02270174  RH  076%=      5-min Rain = 0
KPAD 141020Z 03015KT 23/17 A3011 RMK A01 T02260173  RH  076%=      5-min Rain = 0
KPAD 141025Z 02011KT 23/17 A3011 RMK A01 T02250173  RH  076%=      5-min Rain = 0
KPAD 141030Z 02010G18KT 22/17 A3011 RMK A01 T02230172  RH  077%=      5-min Rain = 0
KPAD 141035Z 02011KT 22/17 A3011 RMK A01 T02210171  RH  077%=      5-min Rain = 0
KPAD 141040Z 02011KT 22/17 A3012 RMK A01 T02200170  RH  077%=      5-min Rain = 0
KPAD 141045Z 02012KT 22/17 A3012 RMK A01 T02190169  RH  077%=      5-min Rain = 0
KPAD 141050Z 02011G16KT 22/17 A3012 RMK A01 T02190169  RH  077%=      5-min Rain = 0
KPAD 141055Z 02010KT 22/17 A3012 RMK A01 T02170168  RH  077%=      5-min Rain = 0
KPAD 141100Z 02011KT 22/17 A3012 RMK A01 T02160168  RH  078%=      5-min Rain = 0
KPAD 141105Z 02010KT 21/17 A3012 RMK A01 T02140168  RH  078%=      5-min Rain = 0
KPAD 141110Z 01010KT 21/17 A3012 RMK A01 T02130167  RH  079%=      5-min Rain = 0
KPAD 141115Z 02008KT 21/17 A3012 RMK A01 T02130167  RH  079%=      5-min Rain = 0
KPAD 141120Z 01006KT 21/17 A3012 RMK A01 T02120167  RH  079%=      5-min Rain = 0
KPAD 141125Z 01006KT 21/17 A3011 RMK A01 T02100166  RH  080%=      5-min Rain = 0
KPAD 141130Z 01006KT 21/17 A3011 RMK A01 T02090166  RH  080%=      5-min Rain = 0
KPAD 141135Z 01007KT 21/17 A3011 RMK A01 T02080166  RH  081%=      5-min Rain = 0
KPAD 141140Z 00008KT 21/17 A3011 RMK A01 T02070166  RH  081%=      5-min Rain = 0
KPAD 141145Z 36008KT 21/17 A3012 RMK A01 T02070166  RH  081%=      5-min Rain = 0
KPAD 141150Z 36009KT 21/17 A3012 RMK A01 T02070166  RH  082%=      5-min Rain = 0
KPAD 141155Z 35009KT 21/17 A3012 RMK A01 T02060166  RH  082%=      5-min Rain = 0
KPAD 141200Z 35009KT 21/17 A3013 RMK A01 T02060166  RH  081%=      5-min Rain = 0
KPAD 141205Z 36008KT 21/17 A3013 RMK A01 T02050165  RH  082%=      5-min Rain = 0
KPAD 141210Z 35008KT 20/17 A3014 RMK A01 T02030165  RH  082%=      5-min Rain = 0
KPAD 141215Z 35008KT 20/17 A3014 RMK A01 T02030165  RH  083%=      5-min Rain = 0
KPAD 141220Z 35008KT 20/17 A3014 RMK A01 T02030165  RH  083%=      5-min Rain = 0
KPAD 141225Z 35008KT 20/17 A3014 RMK A01 T02030165  RH  083%=      5-min Rain = 0
KPAD 141230Z 35009KT 20/17 A3014 RMK A01 T02030165  RH  083%=      5-min Rain = 0
KPAD 141235Z 35010KT 20/17 A3014 RMK A01 T02030165  RH  083%=      5-min Rain = 0
KPAD 141240Z 35010KT 20/17 A3014 RMK A01 T02030165  RH  083%=      5-min Rain = 0
KPAD 141245Z 36009KT 21/17 A3014 RMK A01 T02050165  RH  082%=      5-min Rain = 0
KPAD 141250Z 36008G13KT 21/17 A3014 RMK A01 T02060166  RH  081%=      5-min Rain = 0
KPAD 141255Z 36009KT 21/17 A3014 RMK A01 T02080166  RH  081%=      5-min Rain = 0
KPAD 141300Z 36010KT 21/17 A3014 RMK A01 T02100166  RH  080%=      5-min Rain = 0
KPAD 141305Z 00010KT 21/17 A3015 RMK A01 T02120167  RH  079%=      5-min Rain = 0
KPAD 141310Z 00011KT 21/17 A3015 RMK A01 T02140167  RH  078%=      5-min Rain = 0
KPAD 141315Z 01011KT 21/17 A3016 RMK A01 T02140167  RH  078%=      5-min Rain = 0
KPAD 141320Z 00011KT 22/17 A3016 RMK A01 T02160167  RH  078%=      5-min Rain = 0
KPAD 141325Z 00008KT 22/17 A3016 RMK A01 T02190168  RH  077%=      5-min Rain = 0
KPAD 141330Z 01007KT 22/17 A3016 RMK A01 T02230170  RH  076%=      5-min Rain = 0
KPAD 141335Z 01010KT 23/17 A3016 RMK A01 T02250170  RH  074%=      5-min Rain = 0
KPAD 141340Z 00008KT 23/17 A3017 RMK A01 T02270171  RH  074%=      5-min Rain = 0
KPAD 141345Z 00009KT 23/17 A3017 RMK A01 T02280170  RH  073%=      5-min Rain = 0
KPAD 141350Z 00007KT 23/17 A3017 RMK A01 T02260170  RH  074%=      5-min Rain = 0
KPAD 141355Z 00006KT 23/17 A3017 RMK A01 T02250172  RH  076%=      5-min Rain = 0
KPAD 141400Z 36007KT 23/17 A3017 RMK A01 T02280172  RH  074%=      5-min Rain = 0
KPAD 141405Z 35008KT 23/17 A3017 RMK A01 T02310174  RH  074%=      5-min Rain = 0
KPAD 141410Z 36007KT 23/17 A3017 RMK A01 T02330174  RH  073%=      5-min Rain = 0
KPAD 141415Z 00008KT 24/18 A3017 RMK A01 T02370176  RH  072%=      5-min Rain = 0
KPAD 141420Z 00009KT 24/18 A3017 RMK A01 T02420177  RH  071%=      5-min Rain = 0
KPAD 141425Z 36009KT 25/18 A3017 RMK A01 T02450178  RH  070%=      5-min Rain = 0
KPAD 141430Z 35007KT 25/18 A3017 RMK A01 T02480180  RH  070%=      5-min Rain = 0
KPAD 141435Z 00007KT 25/18 A3017 RMK A01 T02520181  RH  068%=      5-min Rain = 0
KPAD 141440Z 01007KT 25/18 A3017 RMK A01 T02520182  RH  069%=      5-min Rain = 0
KPAD 141445Z 02006KT 26/18 A3017 RMK A01 T02560184  RH  068%=      5-min Rain = 0
KPAD 141450Z 00008KT 26/18 A3017 RMK A01 T02560183  RH  067%=      5-min Rain = 0
KPAD 141455Z 00010KT 26/19 A3018 RMK A01 T02570185  RH  068%=      5-min Rain = 0
KPAD 141500Z 00010G15KT 26/19 A3018 RMK A01 T02620185  RH  066%=      5-min Rain = 0
KPAD 141505Z 00010KT 26/19 A3018 RMK A01 T02630186  RH  066%=      5-min Rain = 0
KPAD 141510Z 01009KT 26/19 A3017 RMK A01 T02630186  RH  066%=      5-min Rain = 0
KPAD 141515Z 36008G14KT 27/19 A3017 RMK A01 T02680187  RH  065%=      5-min Rain = 0
KPAD 141520Z 36009G14KT 27/19 A3017 RMK A01 T02710187  RH  064%=      5-min Rain = 0
KPAD 141525Z 00009KT 27/19 A3017 RMK A01 T02740187  RH  062%=      5-min Rain = 0
KPAD 141530Z 35008KT 27/19 A3017 RMK A01 T02740188  RH  063%=      5-min Rain = 0
KPAD 141535Z 01007KT 28/19 A3017 RMK A01 T02770187  RH  061%=      5-min Rain = 0
KPAD 141540Z 00007KT 28/19 A3017 RMK A01 T02800188  RH  061%=      5-min Rain = 0
KPAD 141545Z 02007KT 29/19 A3016 RMK A01 T02850188  RH  059%=      5-min Rain = 0
KPAD 141550Z 03006KT 29/19 A3016 RMK A01 T02850187  RH  058%=      5-min Rain = 0
KPAD 141555Z 01006KT 29/19 A3016 RMK A01 T02890187  RH  057%=      5-min Rain = 0
KPAD 141600Z 00007KT 29/19 A3016 RMK A01 T02890187  RH  057%=      5-min Rain = 0
KPAD 141605Z 02008KT 29/19 A3016 RMK A01 T02930187  RH  056%=      5-min Rain = 0
KPAD 141610Z 03006KT 29/19 A3016 RMK A01 T02920186  RH  056%=      5-min Rain = 0
KPAD 141615Z 02007KT 29/19 A3016 RMK A01 T02940187  RH  055%=      5-min Rain = 0
KPAD 141620Z 02007G13KT 30/19 A3016 RMK A01 T02970185  RH  054%=      5-min Rain = 0
KPAD 141625Z 02007G12KT 30/19 A3015 RMK A01 T02970185  RH  054%=      5-min Rain = 0
KPAD 141630Z 00007KT 30/18 A3015 RMK A01 T02980184  RH  053%=      5-min Rain = 0
KPAD 141635Z 03008G13KT 30/18 A3015 RMK A01 T03000182  RH  052%=      5-min Rain = 0
KPAD 141640Z 03008KT 30/18 A3015 RMK A01 T03010181  RH  051%=      5-min Rain = 0
KPAD 141645Z 02008KT 30/18 A3014 RMK A01 T03040180  RH  050%=      5-min Rain = 0
KPAD 141650Z 03006KT 31/18 A3014 RMK A01 T03080178  RH  048%=      5-min Rain = 0
KPAD 141655Z 02006G12KT 31/18 A3013 RMK A01 T03090181  RH  049%=      5-min Rain = 0
KPAD 141700Z 07007KT 31/18 A3013 RMK A01 T03120178  RH  047%=      5-min Rain = 0
KPAD 141705Z 06008KT 31/18 A3013 RMK A01 T03120175  RH  046%=      5-min Rain = 0
KPAD 141710Z 05007G12KT 32/17 A3012 RMK A01 T03170172  RH  044%=      5-min Rain = 0
KPAD 141715Z 07007G12KT 32/18 A3012 RMK A01 T03160175  RH  045%=      5-min Rain = 0
KPAD 141720Z 05007KT 32/18 A3012 RMK A01 T03210176  RH  044%=      5-min Rain = 0
KPAD 141725Z 08007G13KT 32/17 A3012 RMK A01 T03240174  RH  043%=      5-min Rain = 0
KPAD 141730Z 06007G13KT 33/17 A3011 RMK A01 T03250173  RH  042%=      5-min Rain = 0
KPAD 141735Z 08008G16KT 33/17 A3011 RMK A01 T03290174  RH  042%=      5-min Rain = 0
KPAD 141740Z 07009G16KT 33/17 A3011 RMK A01 T03310169  RH  040%=      5-min Rain = 0
KPAD 141745Z 08010G15KT 33/16 A301 RMK A01 T03310160  RH  038%=      5-min Rain = 0
KPAD 141750Z 11009KT 33/17 A301 RMK A01 T03330168  RH  039%=      5-min Rain = 0
KPAD 141755Z 09010G15KT 33/16 A301 RMK A01 T03320164  RH  038%=      5-min Rain = 0
KPAD 141800Z 10010G17KT 34/16 A301 RMK A01 T03350161  RH  037%=      5-min Rain = 0
KPAD 141805Z 09010KT 34/15 A301 RMK A01 T03370154  RH  035%=      5-min Rain = 0
KPAD 141810Z 08011G17KT 34/16 A301 RMK A01 T03430163  RH  036%=      5-min Rain = 0
KPAD 141815Z 07010KT 34/16 A3011 RMK A01 T03430156  RH  034%=      5-min Rain = 0
KPAD 141820Z 05009G15KT 34/16 A301 RMK A01 T03400159  RH  036%=      5-min Rain = 0
KPAD 141825Z 07012G18KT 34/16 A301 RMK A01 T03410157  RH  035%=      5-min Rain = 0
KPAD 141830Z 07011G16KT 34/15 A301 RMK A01 T03430153  RH  034%=      5-min Rain = 0
KPAD 141835Z 07008G17KT 34/16 A301 RMK A01 T03420159  RH  035%=      5-min Rain = 0
KPAD 141840Z 05008G17KT 34/16 A301 RMK A01 T03440158  RH  035%=      5-min Rain = 0
KPAD 141845Z 06008G14KT 34/15 A301 RMK A01 T03430154  RH  034%=      5-min Rain = 0
KPAD 141850Z 07009G16KT 34/15 A3009 RMK A01 T03440152  RH  033%=      5-min Rain = 0
KPAD 141855Z 06011G17KT 35/15 A3009 RMK A01 T03480147  RH  031%=      5-min Rain = 0
KPAD 141900Z 04011KT 35/15 A3009 RMK A01 T03490147  RH  031%=      5-min Rain = 0
KPAD 141905Z 05010G20KT 35/15 A3009 RMK A01 T03510151  RH  032%=      5-min Rain = 0
KPAD 141910Z 04012G17KT 35/15 A3008 RMK A01 T03510150  RH  032%=      5-min Rain = 0
KPAD 141915Z 04010KT 35/15 A3008 RMK A01 T03530149  RH  031%=      5-min Rain = 0
KPAD 141920Z 05009G16KT 35/15 A3008 RMK A01 T03510147  RH  031%=      5-min Rain = 0
KPAD 141925Z 07011G16KT 35/14 A3008 RMK A01 T03530142  RH  030%=      5-min Rain = 0
KPAD 141930Z 05009G14KT 35/14 A3008 RMK A01 T03500144  RH  031%=      5-min Rain = 0
KPAD 141935Z 04010G17KT 36/15 A3008 RMK A01 T03560146  RH  030%=      5-min Rain = 0
KPAD 141940Z 03010G15KT 35/15 A3007 RMK A01 T03520148  RH  031%=      5-min Rain = 0
KPAD 141945Z 04009G16KT 35/15 A3007 RMK A01 T03490149  RH  032%=      5-min Rain = 0
KPAD 141950Z 04010G16KT 35/15 A3007 RMK A01 T03530149  RH  031%=      5-min Rain = 0
KPAD 141955Z 03008G15KT 35/15 A3007 RMK A01 T03500151  RH  032%=      5-min Rain = 0
KPAD 142000Z 04012G17KT 35/15 A3007 RMK A01 T03480149  RH  032%=      5-min Rain = 0
KPAD 142005Z 06008KT 35/15 A3007 RMK A01 T03470148  RH  032%=      5-min Rain = 0
KPAD 142010Z 06008G22KT 35/15 A3006 RMK A01 T03490153  RH  032%=      5-min Rain = 0
KPAD 142015Z 06008G13KT 35/15 A3006 RMK A01 T03540148  RH  031%=      5-min Rain = 0
KPAD 142020Z 04007G12KT 35/15 A3006 RMK A01 T03520146  RH  031%=      5-min Rain = 0
KPAD 142025Z 06009KT 36/15 A3006 RMK A01 T03570147  RH  030%=      5-min Rain = 0
KPAD 142030Z 06009KT 36/15 A3005 RMK A01 T03550146  RH  030%=      5-min Rain = 0
KPAD 142035Z 04007KT 35/15 A3005 RMK A01 T03520145  RH  030%=      5-min Rain = 0
KPAD 142040Z 03006KT 35/15 A3004 RMK A01 T03520146  RH  030%=      5-min Rain = 0
KPAD 142045Z 02006KT 35/15 A3004 RMK A01 T03510149  RH  031%=      5-min Rain = 0
KPAD 142050Z 06007G14KT 35/15 A3003 RMK A01 T03540154  RH  032%=      5-min Rain = 0
KPAD 142055Z 11009G17KT 36/15 A3003 RMK A01 T03590148  RH  030%=      5-min Rain = 0
KPAD 142100Z 07009G15KT 36/15 A3003 RMK A01 T03560151  RH  031%=      5-min Rain = 0
KPAD 142105Z 06005KT 35/15 A3003 RMK A01 T03530150  RH  031%=      5-min Rain = 0
KPAD 142110Z 06008G15KT 35/15 A3003 RMK A01 T03540152  RH  031%=      5-min Rain = 0
KPAD 142115Z 07009G14KT 36/15 A3002 RMK A01 T03570154  RH  031%=      5-min Rain = 0
KPAD 142120Z 06007KT 35/15 A3002 RMK A01 T03520154  RH  032%=      5-min Rain = 0
KPAD 142125Z 08008G15KT 35/15 A3002 RMK A01 T03530153  RH  032%=      5-min Rain = 0
KPAD 142130Z 09009G14KT 36/15 A3002 RMK A01 T03560150  RH  031%=      5-min Rain = 0
KPAD 142135Z 09009KT 36/15 A3002 RMK A01 T03550151  RH  031%=      5-min Rain = 0
KPAD 142140Z 08004G9KT 35/15 A3002 RMK A01 T03530148  RH  031%=      5-min Rain = 0
KPAD 142145Z 05008G15KT 35/15 A3002 RMK A01 T03460152  RH  033%=      5-min Rain = 0
KPAD 142150Z 06010G15KT 35/15 A3002 RMK A01 T03540149  RH  031%=      5-min Rain = 0
KPAD 142155Z 06009KT 36/15 A3002 RMK A01 T03550149  RH  031%=      5-min Rain = 0
KPAD 142200Z 04005KT 35/15 A3001 RMK A01 T03540148  RH  031%=      5-min Rain = 0
KPAD 142205Z 05007G13KT 36/15 A3001 RMK A01 T03560153  RH  031%=      5-min Rain = 0
KPAD 142210Z 09011G16KT 36/15 A3001 RMK A01 T03550148  RH  030%=      5-min Rain = 0
KPAD 142215Z 06010G18KT 36/15 A3001 RMK A01 T03580147  RH  030%=      5-min Rain = 0
KPAD 142220Z 09009G17KT 36/15 A3001 RMK A01 T03590147  RH  029%=      5-min Rain = 0
KPAD 142225Z 10009KT 36/14 A3001 RMK A01 T03590144  RH  029%=      5-min Rain = 0
KPAD 142230Z 09006G12KT 35/14 A3001 RMK A01 T03530141  RH  029%=      5-min Rain = 0
KPAD 142235Z 09007G12KT 35/15 A3001 RMK A01 T03500145  RH  031%=      5-min Rain = 0
KPAD 142240Z 07007KT 36/15 A3001 RMK A01 T03560150  RH  031%=      5-min Rain = 0
KPAD 142245Z 07007G12KT 36/15 A3001 RMK A01 T03560150  RH  031%=      5-min Rain = 0
KPAD 142250Z 08008KT 35/15 A3001 RMK A01 T03540150  RH  031%=      5-min Rain = 0
KPAD 142255Z 10009KT 35/15 A3001 RMK A01 T03530151  RH  031%=      5-min Rain = 0
KPAD 142300Z 08008KT 35/15 A3001 RMK A01 T03510151  RH  032%=      5-min Rain = 0
KPAD 142305Z 05009G14KT 35/15 A3001 RMK A01 T03530149  RH  031%=      5-min Rain = 0
KPAD 142310Z 07009KT 35/15 A3001 RMK A01 T03540151  RH  031%=      5-min Rain = 0
KPAD 142315Z 09007KT 35/15 A3001 RMK A01 T03510151  RH  032%=      5-min Rain = 0
KPAD 142320Z 09007G14KT 34/15 A3001 RMK A01 T03420149  RH  033%=      5-min Rain = 0
KPAD 142325Z 09009G14KT 34/15 A3001 RMK A01 T03430149  RH  033%=      5-min Rain = 0
KPAD 142330Z 08007G13KT 35/15 A3001 RMK A01 T03470148  RH  032%=      5-min Rain = 0
KPAD 142335Z 10011KT 35/15 A3001 RMK A01 T03470148  RH  032%=      5-min Rain = 0
KPAD 142340Z 10008KT 35/15 A3001 RMK A01 T03470147  RH  032%=      5-min Rain = 0
KPAD 142345Z 10011KT 35/15 A3001 RMK A01 T03470146  RH  031%=      5-min Rain = 0
KPAD 142350Z 10008KT 35/15 A3001 RMK A01 T03450146  RH  032%=      5-min Rain = 0
KPAD 142355Z 10007KT 34/15 A3001 RMK A01 T03420146  RH  032%=      5-min Rain = 0
KPAD 150000Z 10010KT 34/14 A3001 RMK A01 T03370144  RH  033%=      5-min Rain = 0
KPAD 150005Z 10008KT 34/14 A3001 RMK A01 T03390144  RH  032%=      5-min Rain = 0
KPAD 150010Z 08009KT 34/15 A3001 RMK A01 T03370148  RH  034%=      5-min Rain = 0
KPAD 150015Z 08009KT 34/15 A3001 RMK A01 T03360148  RH  034%=      5-min Rain = 0
KPAD 150020Z 08010KT 34/15 A3001 RMK A01 T03370148  RH  034%=      5-min Rain = 0
KPAD 150025Z 09008KT 34/15 A3001 RMK A01 T03360147  RH  034%=      5-min Rain = 0
KPAD 150030Z 08007KT 34/15 A3001 RMK A01 T03350149  RH  034%=      5-min Rain = 0
KPAD 150035Z 06006KT 33/15 A3001 RMK A01 T03340149  RH  034%=      5-min Rain = 0
KPAD 150040Z 09006KT 33/15 A3001 RMK A01 T03310150  RH  035%=      5-min Rain = 0
KPAD 150045Z 08006KT 33/15 A3002 RMK A01 T03280152  RH  036%=      5-min Rain = 0
KPAD 150050Z 08008KT 33/15 A3002 RMK A01 T03260153  RH  037%=      5-min Rain = 0
KPAD 150055Z 09009KT 33/15 A3002 RMK A01 T03250154  RH  037%=      5-min Rain = 0
KPAD 150100Z 09009KT 33/15 A3002 RMK A01 T03250153  RH  037%=      5-min Rain = 0
KPAD 150105Z 09008KT 32/15 A3002 RMK A01 T03240154  RH  038%=      5-min Rain = 0
KPAD 150110Z 09008KT 32/15 A3002 RMK A01 T03220152  RH  038%=      5-min Rain = 0
KPAD 150115Z 09008KT 32/15 A3003 RMK A01 T03190151  RH  038%=      5-min Rain = 0
KPAD 150120Z 09008KT 32/15 A3003 RMK A01 T03170150  RH  038%=      5-min Rain = 0
KPAD 150125Z 09007KT 31/15 A3003 RMK A01 T03140151  RH  039%=      5-min Rain = 0
KPAD 150130Z 09008KT 31/15 A3003 RMK A01 T03110151  RH  040%=      5-min Rain = 0
KPAD 150135Z 09007KT 31/15 A3003 RMK A01 T03090151  RH  040%=      5-min Rain = 0
KPAD 150140Z 09007KT 31/15 A3003 RMK A01 T03060152  RH  041%=      5-min Rain = 0
KPAD 150145Z 09006KT 30/15 A3004 RMK A01 T03030154  RH  042%=      5-min Rain = 0
KPAD 150150Z 09007KT 30/16 A3004 RMK A01 T03000155  RH  043%=      5-min Rain = 0
KPAD 150155Z 09007KT 30/16 A3004 RMK A01 T02980155  RH  044%=      5-min Rain = 0
KPAD 150200Z 09006KT 30/16 A3004 RMK A01 T02970156  RH  044%=      5-min Rain = 0
KPAD 150205Z 09007KT 30/16 A3005 RMK A01 T02960155  RH  045%=      5-min Rain = 0
KPAD 150210Z 09007KT 30/16 A3005 RMK A01 T02950155  RH  045%=      5-min Rain = 0
KPAD 150215Z 09006KT 29/16 A3005 RMK A01 T02930156  RH  045%=      5-min Rain = 0
KPAD 150220Z 09006KT 29/16 A3006 RMK A01 T02910156  RH  046%=      5-min Rain = 0
KPAD 150225Z 10006KT 29/16 A3006 RMK A01 T02890157  RH  047%=      5-min Rain = 0
KPAD 150230Z 10007KT 29/16 A3006 RMK A01 T02870157  RH  047%=      5-min Rain = 0
KPAD 150235Z 10006KT 29/16 A3007 RMK A01 T02870157  RH  047%=      5-min Rain = 0
KPAD 150240Z 10007KT 29/16 A3007 RMK A01 T02870157  RH  047%=      5-min Rain = 0
KPAD 150245Z 10007KT 29/16 A3007 RMK A01 T02860158  RH  048%=      5-min Rain = 0
KPAD 150250Z 10006KT 28/16 A3007 RMK A01 T02840159  RH  049%=      5-min Rain = 0
KPAD 150255Z 10006KT 28/16 A3007 RMK A01 T02830160  RH  049%=      5-min Rain = 0
KPAD 150300Z 10006KT 28/16 A3008 RMK A01 T02810160  RH  050%=      5-min Rain = 0
KPAD 150305Z 10005KT 28/16 A3008 RMK A01 T02790161  RH  051%=      5-min Rain = 0
KPAD 150310Z 11006KT 28/16 A3008 RMK A01 T02780161  RH  051%=      5-min Rain = 0
KPAD 150315Z 11006KT 28/16 A3008 RMK A01 T02780162  RH  052%=      5-min Rain = 0
KPAD 150320Z 11006KT 28/16 A3008 RMK A01 T02780163  RH  052%=      5-min Rain = 0
KPAD 150325Z 11006KT 28/17 A3008 RMK A01 T02780165  RH  052%=      5-min Rain = 0
KPAD 150330Z 10006KT 28/17 A3008 RMK A01 T02770166  RH  053%=      5-min Rain = 0
KPAD 150335Z 10006KT 28/17 A3008 RMK A01 T02750167  RH  054%=      5-min Rain = 0
KPAD 150340Z 11006KT 27/17 A3009 RMK A01 T02730167  RH  055%=      5-min Rain = 0
KPAD 150345Z 11006KT 27/17 A3009 RMK A01 T02740168  RH  055%=      5-min Rain = 0
KPAD 150350Z 10006KT 27/17 A3009 RMK A01 T02740169  RH  056%=      5-min Rain = 0
KPAD 150355Z 11006KT 28/17 A3009 RMK A01 T02750170  RH  056%=      5-min Rain = 0
KPAD 150400Z 11006KT 27/17 A3009 RMK A01 T02740171  RH  056%=      5-min Rain = 0
KPAD 150405Z 11006KT 27/17 A3009 RMK A01 T02730171  RH  057%=      5-min Rain = 0
KPAD 150410Z 11006KT 27/17 A3009 RMK A01 T02730171  RH  057%=      5-min Rain = 0
KPAD 150415Z 11006KT 27/17 A3009 RMK A01 T02730172  RH  057%=      5-min Rain = 0
KPAD 150420Z 11005KT 27/17 A3009 RMK A01 T02720172  RH  057%=      5-min Rain = 0
KPAD 150425Z 13005KT 27/17 A301 RMK A01 T02700172  RH  058%=      5-min Rain = 0
KPAD 150430Z 12004KT 27/17 A301 RMK A01 T02700173  RH  058%=      5-min Rain = 0
KPAD 150435Z 11004KT 27/17 A301 RMK A01 T02680172  RH  059%=      5-min Rain = 0
KPAD 150440Z 11004KT 27/17 A301 RMK A01 T02660172  RH  059%=      5-min Rain = 0
KPAD 150445Z 11003KT 26/17 A301 RMK A01 T02640172  RH  060%=      5-min Rain = 0
KPAD 150450Z 12003KT 26/17 A301 RMK A01 T02620172  RH  061%=      5-min Rain = 0
KPAD 150455Z 11003KT 26/17 A301 RMK A01 T02620172  RH  061%=      5-min Rain = 0

Page generated in 0.2101 seconds.